Time;durP1;ratioP1;P1;durP2;ratioP2;P2;SDS_P1;SDS_P2;PMS_P1;PMS_P2;Temp;Humidity;BMP_temperature;BMP_pressure;BME280_temperature;BME280_humidity;BME280_pressure;Samples;Min_cycle;Max_cycle;Signal;HPM_P1;HPM_P2
2022/12/18 00:01:52;;;;;;;0.50;0.10;;;-5.30;1.00;;;;;;6039852;23;20184;-75
2022/12/18 00:04:24;;;;;;;0.90;0.40;;;-5.40;1.00;;;;;;6038838;23;20743;-77
2022/12/18 00:06:52;;;;;;;0.50;0.10;;;-5.40;1.00;;;;;;6039593;23;20200;-75
2022/12/18 00:09:20;;;;;;;1.80;1.70;;;-5.40;1.00;;;;;;6039351;23;20786;-77
2022/12/18 00:11:52;;;;;;;0.50;0.10;;;-5.40;1.00;;;;;;6038933;23;20707;-76
2022/12/18 00:14:20;;;;;;;0.50;0.10;;;-5.40;1.00;;;;;;6038332;23;20744;-76
2022/12/18 00:16:48;;;;;;;0.50;0.20;;;-5.50;1.00;;;;;;6038809;23;20428;-79
2022/12/18 00:19:16;;;;;;;0.50;0.10;;;-5.50;1.00;;;;;;6038365;23;20419;-76
2022/12/18 00:21:46;;;;;;;0.50;0.10;;;-5.50;1.00;;;;;;6040363;23;20184;-77
2022/12/18 00:24:13;;;;;;;0.50;0.10;;;-5.50;1.00;;;;;;6037248;23;20183;-75
2022/12/18 00:26:41;;;;;;;1.37;1.27;;;-5.50;1.00;;;;;;6038537;23;20200;-76
2022/12/18 00:29:13;;;;;;;0.50;0.20;;;-5.50;1.00;;;;;;6042074;23;20413;-76
2022/12/18 00:31:42;;;;;;;0.80;0.67;;;-5.50;1.00;;;;;;6043633;23;20164;-76
2022/12/18 00:34:12;;;;;;;1.90;1.80;;;-5.50;1.00;;;;;;6040939;23;20447;-76
2022/12/18 00:36:40;;;;;;;0.50;0.10;;;-5.50;1.00;;;;;;6037820;23;20428;-77
2022/12/18 00:39:08;;;;;;;1.23;1.02;;;-5.50;1.00;;;;;;6038000;23;20184;-77
2022/12/18 00:44:23;;;;;;;0.50;0.10;;;-5.60;1.00;;;;;;6037689;23;20535;-77
2022/12/18 00:46:51;;;;;;;0.50;0.20;;;-5.70;1.00;;;;;;6038438;23;20493;-77
2022/12/18 00:49:20;;;;;;;0.50;0.10;;;-5.70;1.00;;;;;;6038600;23;20412;-77
2022/12/18 00:51:48;;;;;;;0.50;0.10;;;-5.60;1.00;;;;;;6038620;23;20415;-77
2022/12/18 00:54:17;;;;;;;0.57;0.27;;;-5.60;1.00;;;;;;6037626;23;20260;-76
2022/12/18 00:56:45;;;;;;;9.93;2.20;;;-5.60;1.00;;;;;;6037600;23;20441;-76
2022/12/18 00:59:17;;;;;;;1.90;1.05;;;-5.60;1.00;;;;;;6038846;23;20415;-77
2022/12/18 05:02:44;;;;;;;0.70;0.10;;;;;;;;;;6032693;23;20267;-75
2022/12/18 05:05:13;;;;;;;0.50;0.10;;;-5.60;1.00;;;;;;6042976;23;20392;-78
2022/12/18 05:07:41;;;;;;;0.50;0.10;;;-5.60;1.00;;;;;;6042972;23;20184;-77
2022/12/18 05:10:09;;;;;;;0.50;0.10;;;-5.60;1.00;;;;;;6045263;23;20416;-75
2022/12/18 05:12:57;;;;;;;0.73;0.73;;;-5.70;1.00;;;;;;6045866;23;21024;-77
2022/12/18 05:15:28;;;;;;;0.50;0.10;;;;;;;;;;6043266;23;20566;-76
2022/12/18 05:17:57;;;;;;;0.50;0.10;;;-5.60;1.00;;;;;;6040289;23;20394;-76
2022/12/18 05:20:27;;;;;;;0.50;0.10;;;-5.70;1.00;;;;;;6039313;23;20704;-76
2022/12/18 05:22:55;;;;;;;0.50;0.10;;;-5.70;1.00;;;;;;6039085;23;20186;-75
2022/12/18 05:25:24;;;;;;;0.50;0.10;;;-5.70;1.00;;;;;;6041793;23;21001;-75
2022/12/18 05:27:52;;;;;;;0.50;0.10;;;-5.70;1.00;;;;;;6045694;23;20188;-76
2022/12/18 05:30:20;;;;;;;0.50;0.10;;;-5.70;1.00;;;;;;6038271;23;20409;-76
2022/12/18 05:32:48;;;;;;;0.50;0.10;;;;;;;;;;6038477;23;20415;-77
2022/12/18 05:35:17;;;;;;;0.50;0.10;;;-5.70;1.00;;;;;;6038573;23;20212;-77
2022/12/18 05:37:45;;;;;;;0.70;0.47;;;-5.70;1.00;;;;;;6040864;23;20183;-77
2022/12/18 05:40:13;;;;;;;0.50;0.10;;;-5.70;1.00;;;;;;6041049;23;20415;-76
2022/12/18 05:42:41;;;;;;;0.50;0.10;;;-5.70;1.00;;;;;;6038347;23;20184;-77
2022/12/18 05:45:09;;;;;;;1.02;0.57;;;-5.80;1.00;;;;;;6038485;23;20203;-78
2022/12/18 05:47:37;;;;;;;2.30;2.10;;;-5.80;1.00;;;;;;6038179;23;20191;-78
2022/12/18 05:50:07;;;;;;;0.50;0.10;;;-5.80;1.00;;;;;;6038444;23;20416;-77
2022/12/18 05:52:36;;;;;;;0.50;0.10;;;-5.80;1.00;;;;;;6038131;23;20419;-76
2022/12/18 05:55:04;;;;;;;0.50;0.10;;;-5.80;1.00;;;;;;6039730;23;20456;-78
2022/12/18 05:57:32;;;;;;;5.75;5.40;;;-5.80;1.00;;;;;;6040290;23;20236;-76
2022/12/18 06:00:00;;;;;;;2.78;2.58;;;-5.80;1.00;;;;;;6040304;23;20183;-75
2022/12/18 06:02:28;;;;;;;2.63;1.47;;;-5.80;1.00;;;;;;6040039;23;20180;-78
2022/12/18 06:04:56;;;;;;;1.75;1.20;;;-5.80;1.00;;;;;;6039984;23;20413;-78
2022/12/18 06:07:23;;;;;;;0.50;0.20;;;-5.80;1.00;;;;;;6040323;23;20566;-77
2022/12/18 06:09:53;;;;;;;0.50;0.30;;;-5.70;1.00;;;;;;6040176;23;20466;-78
2022/12/18 06:12:20;;;;;;;5.43;5.10;;;-5.70;1.00;;;;;;6039802;23;20412;-77
2022/12/18 06:14:48;;;;;;;0.50;0.10;;;-5.70;1.00;;;;;;6039338;23;21002;-78
2022/12/18 06:17:16;;;;;;;0.50;0.10;;;-5.70;1.00;;;;;;6039882;23;20243;-76
2022/12/18 06:19:44;;;;;;;0.50;0.10;;;-5.70;1.00;;;;;;6039675;23;20188;-76
2022/12/18 06:22:12;;;;;;;0.50;0.10;;;-5.60;1.00;;;;;;6039592;23;20793;-76
2022/12/18 06:24:40;;;;;;;0.50;0.10;;;-5.60;1.00;;;;;;6040113;23;20404;-77
2022/12/18 06:27:09;;;;;;;0.50;0.10;;;-5.60;1.00;;;;;;6039819;23;20267;-78
2022/12/18 06:29:37;;;;;;;0.80;0.73;;;-5.60;1.00;;;;;;6040415;23;20420;-76
2022/12/18 06:32:05;;;;;;;1.90;1.83;;;-5.60;1.00;;;;;;6041355;23;20468;-76
2022/12/18 06:34:33;;;;;;;0.50;0.10;;;-5.60;1.00;;;;;;6039342;23;20184;-76
2022/12/18 06:37:01;;;;;;;0.50;0.10;;;-5.60;1.00;;;;;;6039211;23;20507;-76
2022/12/18 06:39:29;;;;;;;1.43;1.43;;;-5.60;1.00;;;;;;6039370;23;20968;-77
2022/12/18 06:41:57;;;;;;;0.50;0.20;;;-5.60;1.00;;;;;;6039711;23;20411;-77
2022/12/18 06:44:26;;;;;;;0.50;0.10;;;-5.60;1.00;;;;;;6039171;23;20448;-77
2022/12/18 06:46:54;;;;;;;0.60;0.40;;;-5.60;1.00;;;;;;6039239;23;21156;-76
2022/12/18 06:49:22;;;;;;;0.50;0.10;;;-5.60;1.00;;;;;;6039414;23;20408;-77
2022/12/18 06:51:56;;;;;;;0.50;0.10;;;-5.60;1.00;;;;;;6038862;23;20863;-78
2022/12/18 06:54:24;;;;;;;0.50;0.10;;;-5.60;1.00;;;;;;6039602;23;20444;-79
2022/12/18 06:56:52;;;;;;;0.50;0.10;;;-5.60;1.00;;;;;;6038803;23;21185;-77
2022/12/18 06:59:20;;;;;;;0.50;0.10;;;-5.60;1.00;;;;;;6039637;23;20409;-76
2022/12/18 07:01:49;;;;;;;0.50;0.10;;;-5.70;1.00;;;;;;6039441;23;20184;-77
2022/12/18 07:04:17;;;;;;;0.50;0.10;;;-5.70;1.00;;;;;;6039152;23;20409;-78
2022/12/18 07:06:45;;;;;;;0.50;0.20;;;-5.60;1.00;;;;;;6038953;23;20431;-78
2022/12/18 07:09:13;;;;;;;0.50;0.10;;;-5.60;1.00;;;;;;6039278;23;20180;-80
2022/12/18 07:11:41;;;;;;;0.50;0.10;;;-5.60;1.00;;;;;;6039618;23;20540;-77
2022/12/18 07:14:09;;;;;;;3.22;3.13;;;-5.60;1.00;;;;;;6038781;23;20417;-79
2022/12/18 07:16:37;;;;;;;1.58;1.30;;;-5.70;1.00;;;;;;6038486;23;20204;-77
2022/12/18 07:19:06;;;;;;;1.67;1.58;;;-5.70;1.00;;;;;;6039234;23;20184;-75
2022/12/18 07:21:34;;;;;;;0.60;0.50;;;-5.60;1.00;;;;;;6039309;23;20187;-76
2022/12/18 07:24:01;;;;;;;0.50;0.10;;;-5.60;1.00;;;;;;6039064;23;20408;-77
2022/12/18 07:26:29;;;;;;;0.50;0.10;;;-5.60;1.00;;;;;;6038852;23;20201;-76
2022/12/18 07:28:58;;;;;;;0.93;0.30;;;-5.60;1.00;;;;;;6039245;23;20240;-78
2022/12/18 07:31:26;;;;;;;0.50;0.10;;;-5.60;1.00;;;;;;6039441;23;20236;-78
2022/12/18 07:33:55;;;;;;;0.82;0.82;;;-5.80;1.00;;;;;;6038617;23;20412;-76
2022/12/18 07:36:27;;;;;;;0.87;0.87;;;-5.80;1.00;;;;;;6039233;23;20215;-77
2022/12/18 07:38:55;;;;;;;1.42;1.33;;;-5.80;1.00;;;;;;6039281;23;20409;-76
2022/12/18 07:41:23;;;;;;;3.58;3.30;;;-5.90;1.00;;;;;;6040875;23;20235;-75
2022/12/18 07:43:51;;;;;;;0.50;0.10;;;-5.90;1.00;;;;;;6041573;23;20266;-75
2022/12/18 07:46:19;;;;;;;0.50;0.10;;;-5.90;1.00;;;;;;6041353;23;20192;-76
2022/12/18 07:48:47;;;;;;;0.50;0.10;;;-5.90;1.00;;;;;;6038791;23;20708;-77
2022/12/18 07:51:17;;;;;;;1.08;0.80;;;-5.90;1.00;;;;;;6038709;23;20653;-77
2022/12/18 07:53:47;;;;;;;7.88;7.53;;;-5.80;1.00;;;;;;6038713;23;20673;-77
2022/12/18 07:56:19;;;;;;;1.05;0.95;;;-5.80;1.00;;;;;;6039067;23;20634;-78
2022/12/18 07:58:56;;;;;;;0.50;0.10;;;-5.80;1.00;;;;;;6039269;23;20171;-77
2022/12/18 08:01:24;;;;;;;0.50;0.10;;;-5.80;1.00;;;;;;6038800;23;20919;-79
2022/12/18 08:03:52;;;;;;;0.50;0.10;;;-5.90;1.00;;;;;;6038513;23;20462;-78
2022/12/18 08:06:20;;;;;;;0.60;0.35;;;-5.90;1.00;;;;;;6039132;23;20266;-77
2022/12/18 08:08:53;;;;;;;0.63;0.50;;;-5.80;1.00;;;;;;6040186;23;20179;-80
2022/12/18 08:11:22;;;;;;;0.88;0.57;;;-5.80;1.00;;;;;;6042051;23;20232;-76
2022/12/18 08:13:50;;;;;;;0.50;0.20;;;-5.80;1.00;;;;;;6042470;23;20212;-76
2022/12/18 08:16:18;;;;;;;0.50;0.20;;;-5.70;1.00;;;;;;6040420;23;20959;-75
2022/12/18 08:18:47;;;;;;;0.50;0.20;;;-5.60;1.00;;;;;;6040807;23;20180;-71
2022/12/18 08:21:20;;;;;;;0.60;0.20;;;-5.50;1.00;;;;;;6039900;23;20762;-75
2022/12/18 08:23:49;;;;;;;0.65;0.60;;;-5.40;1.00;;;;;;6038893;23;20262;-77
2022/12/18 08:26:20;;;;;;;0.65;0.40;;;-5.30;1.00;;;;;;6039321;23;20229;-77
2022/12/18 08:28:48;;;;;;;0.50;0.30;;;-5.20;1.00;;;;;;6038864;23;20164;-77
2022/12/18 08:31:17;;;;;;;8.43;7.97;;;-5.20;1.00;;;;;;6038908;23;20496;-77
2022/12/18 08:33:45;;;;;;;0.70;0.60;;;-5.10;1.00;;;;;;6038415;23;20411;-77
2022/12/18 08:36:13;;;;;;;0.50;0.20;;;-5.00;1.00;;;;;;6038136;23;20822;-78
2022/12/18 08:38:41;;;;;;;1.00;0.17;;;-4.90;1.00;;;;;;6038640;23;20409;-77
2022/12/18 08:41:12;;;;;;;0.60;0.50;;;-5.00;1.00;;;;;;6039406;23;20420;-77
2022/12/18 08:46:33;;;;;;;0.50;0.10;;;-4.80;1.00;;;;;;6040206;23;20732;-77
2022/12/18 08:49:01;;;;;;;0.50;0.10;;;-4.60;1.00;;;;;;6039661;23;20424;-76
2022/12/18 08:51:30;;;;;;;0.50;0.10;;;-4.60;1.00;;;;;;6039583;23;20419;-79
2022/12/18 08:53:58;;;;;;;0.70;0.70;;;-4.40;1.00;;;;;;6039657;23;20529;-77
2022/12/18 08:56:26;;;;;;;0.50;0.10;;;-4.40;1.00;;;;;;6038577;23;20448;-78
2022/12/18 08:58:56;;;;;;;0.50;0.20;;;-4.30;1.00;;;;;;6038823;23;20413;-78
2022/12/18 09:01:25;;;;;;;0.67;0.67;;;-4.30;1.00;;;;;;6038230;23;20405;-76
2022/12/18 09:03:53;;;;;;;0.50;0.10;;;-4.20;1.00;;;;;;6038333;23;20763;-78
2022/12/18 09:06:22;;;;;;;1.03;0.70;;;-4.20;1.00;;;;;;6038622;23;20428;-77
2022/12/18 09:08:50;;;;;;;0.60;0.40;;;-4.20;1.00;;;;;;6038885;23;20420;-76
2022/12/18 09:11:22;;;;;;;0.50;0.10;;;-4.20;1.00;;;;;;6038389;23;20412;-77
2022/12/18 09:13:50;;;;;;;43.23;40.93;;;-4.10;1.00;;;;;;6035216;23;20429;-74
2022/12/18 09:16:20;;;;;;;1.70;1.60;;;-4.00;1.00;;;;;;6038392;23;20436;-77
2022/12/18 09:18:49;;;;;;;2.40;1.40;;;-3.90;1.00;;;;;;6041670;23;20477;-75
2022/12/18 09:21:19;;;;;;;3.50;1.90;;;-3.70;1.00;;;;;;6035272;23;20409;-74
2022/12/18 09:23:50;;;;;;;0.50;0.10;;;;;;;;;;6040294;23;20409;-75
2022/12/18 09:26:20;;;;;;;2.43;2.23;;;-3.40;1.00;;;;;;6038975;23;20454;-73
2022/12/18 09:28:49;;;;;;;31.37;8.63;;;-3.20;1.00;;;;;;6037253;23;20421;-74
2022/12/18 09:31:19;;;;;;;0.60;0.17;;;-3.20;1.00;;;;;;6037309;23;20930;-72
2022/12/18 09:33:47;;;;;;;0.60;0.10;;;-3.10;1.00;;;;;;6037630;23;20409;-75
2022/12/18 09:36:17;;;;;;;0.53;0.10;;;-3.10;1.00;;;;;;6037745;23;20440;-75
2022/12/18 09:38:45;;;;;;;0.50;0.10;;;-3.10;1.00;;;;;;6038290;23;20458;-75
2022/12/18 09:41:34;;;;;;;0.60;0.60;;;-3.20;1.00;;;;;;6037949;23;20409;-73
2022/12/18 09:44:06;;;;;;;0.60;0.10;;;-3.20;1.00;;;;;;6037419;23;20413;-73
2022/12/18 09:46:38;;;;;;;6.57;4.87;;;-3.20;1.00;;;;;;6037644;23;20436;-73
2022/12/18 09:49:14;;;;;;;0.50;0.10;;;-3.20;1.00;;;;;;6037476;23;20412;-74
2022/12/18 09:51:45;;;;;;;4.20;3.60;;;-3.30;1.00;;;;;;6038337;23;20397;-74
2022/12/18 09:54:18;;;;;;;0.50;0.30;;;-3.10;1.00;;;;;;6036639;23;20461;-73
2022/12/18 09:56:46;;;;;;;0.50;0.10;;;-3.00;1.00;;;;;;6037681;23;20443;-75
2022/12/18 09:59:22;;;;;;;2.10;1.60;;;-2.90;1.00;;;;;;6037302;23;20413;-73
2022/12/18 10:01:51;;;;;;;2.07;1.90;;;-2.90;1.00;;;;;;6037710;23;20400;-74
2022/12/18 10:04:19;;;;;;;4.27;2.73;;;-3.00;1.00;;;;;;6037120;23;20906;-74
2022/12/18 10:06:54;;;;;;;0.77;0.77;;;-3.10;1.00;;;;;;6037724;23;20431;-75
2022/12/18 10:09:30;;;;;;;1.50;1.40;;;-3.20;1.00;;;;;;6037693;23;20384;-76
2022/12/18 10:12:08;;;;;;;3.47;3.20;;;-3.30;1.00;;;;;;6039269;23;20436;-75
2022/12/18 10:14:41;;;;;;;1.80;1.70;;;;;;;;;;6040433;23;20393;-76
2022/12/18 10:17:24;;;;;;;3.13;2.93;;;-3.10;1.00;;;;;;6037400;23;20792;-76
2022/12/18 10:19:57;;;;;;;2.20;2.00;;;-3.10;1.00;;;;;;6038949;23;20393;-73
2022/12/18 10:22:42;;;;;;;0.50;0.10;;;-3.00;1.00;;;;;;6035485;23;20412;-75
2022/12/18 10:25:20;;;;;;;5.87;5.30;;;-2.90;1.00;;;;;;6036637;23;20760;-74
2022/12/18 10:27:49;;;;;;;7.37;5.13;;;-3.00;1.00;;;;;;6037736;23;20433;-74
2022/12/18 10:30:19;;;;;;;0.50;0.20;;;-3.00;1.00;;;;;;6036433;23;20409;-74
2022/12/18 10:32:49;;;;;;;6.67;4.33;;;-3.00;1.00;;;;;;6037519;23;20464;-74
2022/12/18 10:35:22;;;;;;;0.70;0.63;;;-3.00;1.00;;;;;;6037643;23;20435;-75
2022/12/18 10:38:22;;;;;;;0.60;0.40;;;-3.00;1.00;;;;;;6037391;23;20448;-75
2022/12/18 10:40:53;;;;;;;4.10;1.13;;;-3.00;1.00;;;;;;6043342;23;20404;-74
2022/12/18 10:43:24;;;;;;;3.80;3.60;;;-3.10;1.00;;;;;;6039407;23;20425;-74
2022/12/18 10:46:14;;;;;;;0.50;0.10;;;-3.10;1.00;;;;;;6040839;23;20437;-74
2022/12/18 10:48:52;;;;;;;5.70;3.30;;;-3.00;1.00;;;;;;6039638;23;20413;-75
2022/12/18 10:51:22;;;;;;;0.50;0.10;;;-3.10;1.00;;;;;;6036079;23;20444;-76
2022/12/18 10:53:56;;;;;;;2.53;2.33;;;-3.10;1.00;;;;;;6038986;23;20413;-74
2022/12/18 10:56:26;;;;;;;0.50;0.10;;;-2.90;1.00;;;;;;6039003;23;20452;-74
2022/12/18 10:59:00;;;;;;;8.33;2.23;;;-2.80;1.00;;;;;;6038974;23;20425;-74
2022/12/18 11:01:29;;;;;;;2.43;2.33;;;-2.70;1.00;;;;;;6038924;23;20408;-75
2022/12/18 11:04:08;;;;;;;5.30;4.93;;;-1.40;1.00;;;;;;6038419;23;20477;-75
2022/12/18 11:06:55;;;;;;;0.50;0.10;;;-2.70;1.00;;;;;;6038846;23;20483;-74
2022/12/18 11:09:25;;;;;;;1.13;0.83;;;-2.60;1.00;;;;;;6039133;23;20381;-73
2022/12/18 11:11:54;;;;;;;0.60;0.40;;;-2.50;1.00;;;;;;6038226;23;20453;-74
2022/12/18 11:14:24;;;;;;;0.50;0.10;;;-2.50;1.00;;;;;;6040631;23;20799;-74
2022/12/18 11:16:53;;;;;;;4.63;4.43;;;-2.40;1.00;;;;;;6038586;23;20437;-75
2022/12/18 11:19:42;;;;;;;0.80;0.77;;;-2.40;1.00;;;;;;6035842;23;20736;-75
2022/12/18 11:22:21;;;;;;;7.70;3.20;;;-2.40;1.00;;;;;;6038425;23;20442;-74
2022/12/18 11:24:55;;;;;;;0.60;0.20;;;-2.50;1.00;;;;;;6038178;23;20909;-74
2022/12/18 11:27:49;;;;;;;0.50;0.20;;;-2.50;1.00;;;;;;6037650;23;20834;-74
2022/12/18 11:30:25;;;;;;;4.43;4.23;;;-2.80;1.00;;;;;;6037077;23;20409;-73
2022/12/18 11:32:57;;;;;;;0.50;0.10;;;-2.60;1.00;;;;;;6026831;23;20985;-74
2022/12/18 11:35:45;;;;;;;0.50;0.10;;;-2.00;1.00;;;;;;6039110;23;20428;-73
2022/12/18 11:38:22;;;;;;;1.00;0.53;;;-1.90;1.00;;;;;;6036827;23;20987;-73
2022/12/18 11:40:56;;;;;;;4.00;2.77;;;-2.70;1.00;;;;;;6040247;23;20421;-75
2022/12/18 11:43:29;;;;;;;0.50;0.20;;;-2.70;1.00;;;;;;6038574;23;20409;-73
2022/12/18 11:46:03;;;;;;;1.00;0.87;;;-4.80;1.00;;;;;;6038716;23;20435;-72
2022/12/18 11:48:38;;;;;;;0.50;0.13;;;-2.80;1.00;;;;;;6039519;23;20401;-73
2022/12/18 11:51:15;;;;;;;1.27;0.83;;;-2.80;1.00;;;;;;6039414;23;20389;-73
2022/12/18 11:53:43;;;;;;;13.83;13.07;;;-2.80;1.00;;;;;;6039243;23;20412;-74
2022/12/18 11:56:27;;;;;;;1.30;1.20;;;-2.80;1.00;;;;;;6039176;23;20428;-73
2022/12/18 11:59:08;;;;;;;2.30;2.20;;;-2.70;1.00;;;;;;6040237;23;20448;-73
2022/12/18 12:01:49;;;;;;;0.50;0.10;;;-2.60;1.00;;;;;;6039682;23;20432;-75
2022/12/18 12:04:42;;;;;;;3.73;3.40;;;-2.50;1.00;;;;;;6038750;23;20413;-74
2022/12/18 12:07:24;;;;;;;3.63;0.60;;;-2.50;1.00;;;;;;6038669;23;20397;-75
2022/12/18 12:10:02;;;;;;;0.50;0.10;;;-2.40;1.00;;;;;;6038056;23;20906;-73
2022/12/18 12:12:49;;;;;;;0.77;0.40;;;-2.40;1.00;;;;;;6038176;23;20778;-75
2022/12/18 12:15:29;;;;;;;3.17;3.07;;;-2.20;1.00;;;;;;6038224;23;20523;-74
2022/12/18 12:18:04;;;;;;;5.47;5.00;;;-2.20;1.00;;;;;;6038668;23;20871;-74
2022/12/18 12:20:48;;;;;;;0.50;0.23;;;-2.20;1.00;;;;;;6038789;23;20393;-73
2022/12/18 12:23:22;;;;;;;2.20;2.10;;;;;;;;;;6037762;23;20875;-73
2022/12/18 12:26:02;;;;;;;0.50;0.10;;;-2.30;1.00;;;;;;6039132;23;20420;-75
2022/12/18 12:29:02;;;;;;;0.50;0.10;;;-2.30;1.00;;;;;;6039526;23;20950;-74
2022/12/18 12:31:44;;;;;;;0.60;0.40;;;-2.00;1.00;;;;;;6039255;23;20420;-75
2022/12/18 12:34:18;;;;;;;0.50;0.10;;;-2.00;1.00;;;;;;6038055;23;20439;-73
2022/12/18 12:37:00;;;;;;;0.50;0.37;;;-1.90;1.00;;;;;;6038418;23;20428;-75
2022/12/18 12:39:34;;;;;;;6.30;2.87;;;-1.90;1.00;;;;;;6039029;23;20432;-76
2022/12/18 12:44:56;;;;;;;0.60;0.40;;;-1.80;1.00;;;;;;6038327;23;20936;-74
2022/12/18 12:47:36;;;;;;;6.03;2.63;;;-1.80;1.00;;;;;;6039012;23;20433;-74
2022/12/18 12:50:12;;;;;;;0.60;0.50;;;-1.90;1.00;;;;;;6039444;23;20448;-74
2022/12/18 12:52:45;;;;;;;0.80;0.60;;;-1.90;1.00;;;;;;6038497;23;20468;-75
2022/12/18 12:55:19;;;;;;;3.73;1.50;;;-1.80;1.00;;;;;;6038312;23;20435;-75
2022/12/18 12:58:15;;;;;;;14.33;2.13;;;0.30;1.00;;;;;;6038727;23;20401;-73
2022/12/18 13:00:53;;;;;;;0.50;0.27;;;-1.80;1.00;;;;;;6038326;23;20388;-75
2022/12/18 13:03:35;;;;;;;3.70;3.50;;;-1.90;1.00;;;;;;6038036;23;20404;-74
2022/12/18 13:06:10;;;;;;;7.17;6.63;;;-1.90;1.00;;;;;;6038192;23;20428;-75
2022/12/18 13:08:54;;;;;;;3.80;2.63;;;-1.90;1.00;;;;;;6038002;23;20416;-75
2022/12/18 13:14:42;;;;;;;1.70;1.60;;;-1.90;1.00;;;;;;6037985;23;20400;-75
2022/12/18 13:17:31;;;;;;;2.93;0.97;;;-1.90;1.00;;;;;;6038630;23;20416;-75
2022/12/18 13:20:11;;;;;;;3.63;1.53;;;-1.90;1.00;;;;;;6034026;23;20531;-76
2022/12/18 13:22:45;;;;;;;0.50;0.10;;;-1.90;1.00;;;;;;6038629;23;20435;-76
2022/12/18 13:25:31;;;;;;;0.50;0.10;;;-1.90;1.00;;;;;;6038279;23;20440;-74
2022/12/18 13:28:05;;;;;;;0.60;0.30;;;-1.90;1.00;;;;;;6038574;23;20412;-75
2022/12/18 13:30:51;;;;;;;3.17;2.67;;;-1.90;1.00;;;;;;6038793;23;20404;-73
2022/12/18 13:33:51;;;;;;;1.20;1.20;;;-1.90;1.00;;;;;;6038061;23;20441;-74
2022/12/18 13:36:38;;;;;;;1.67;1.57;;;-1.90;1.00;;;;;;6038000;23;20937;-75
2022/12/18 13:39:23;;;;;;;0.50;0.30;;;-2.00;1.00;;;;;;6038743;23;20748;-73
2022/12/18 13:46:01;;;;;;;2.30;2.20;;;-2.00;1.00;;;;;;6039836;23;20441;-73
2022/12/18 13:48:32;;;;;;;0.50;0.10;;;-1.90;1.00;;;;;;5983903;24;20939;-74
2022/12/18 13:51:05;;;;;;;1.30;0.73;;;-1.90;1.00;;;;;;6029930;23;20412;-72
2022/12/18 13:53:42;;;;;;;0.50;0.10;;;-1.90;1.00;;;;;;6038949;23;20401;-74
2022/12/18 13:56:16;;;;;;;0.50;0.30;;;-2.00;1.00;;;;;;6038520;23;20469;-72
2022/12/18 13:58:44;;;;;;;4.67;4.37;;;-2.10;1.00;;;;;;6038491;23;20382;-75
2022/12/18 14:01:24;;;;;;;18.73;3.60;;;-2.00;1.00;;;;;;6038043;23;20413;-75
2022/12/18 14:04:09;;;;;;;0.60;0.47;;;-1.90;1.00;;;;;;6038946;23;21026;-73
2022/12/18 14:06:37;;;;;;;0.50;0.20;;;-1.90;1.00;;;;;;6037800;23;20425;-74
2022/12/18 14:09:05;;;;;;;0.73;0.73;;;-1.90;1.00;;;;;;6038667;23;20501;-74
2022/12/18 14:11:36;;;;;;;5.90;1.90;;;-1.90;1.00;;;;;;6037822;23;20413;-76
2022/12/18 14:14:08;;;;;;;0.60;0.50;;;-1.90;1.00;;;;;;6043898;23;20476;-74
2022/12/18 14:16:39;;;;;;;0.50;0.20;;;-2.00;1.00;;;;;;6051972;23;20448;-73
2022/12/18 14:19:15;;;;;;;0.50;0.40;;;-0.40;1.00;;;;;;6052784;23;20502;-74
2022/12/18 14:21:47;;;;;;;0.50;0.20;;;-1.90;1.00;;;;;;6046548;23;20408;-74
2022/12/18 14:24:17;;;;;;;2.10;0.60;;;-2.00;1.00;;;;;;6040962;23;20661;-73
2022/12/18 14:26:47;;;;;;;1.00;0.80;;;-2.00;1.00;;;;;;6038226;23;20460;-72
2022/12/18 14:29:23;;;;;;;4.50;4.10;;;0.10;1.00;;;;;;6037703;23;20973;-75
2022/12/18 14:32:10;;;;;;;6.73;2.67;;;-2.10;1.00;;;;;;6037894;23;20926;-74
2022/12/18 14:34:45;;;;;;;9.43;8.70;;;-1.90;1.00;;;;;;6039218;23;21090;-74
2022/12/18 14:37:15;;;;;;;0.50;0.17;;;-1.90;1.00;;;;;;6038519;23;20415;-75
2022/12/18 14:39:57;;;;;;;0.83;0.83;;;-1.90;1.00;;;;;;6040719;23;20528;-73
2022/12/18 14:42:27;;;;;;;4.63;2.83;;;-1.90;1.00;;;;;;6038410;23;20409;-74
2022/12/18 14:45:34;;;;;;;0.50;0.10;;;-1.90;1.00;;;;;;6038386;23;20416;-74
2022/12/18 14:48:16;;;;;;;3.80;3.60;;;-1.90;1.00;;;;;;6039163;23;20850;-75
2022/12/18 14:50:59;;;;;;;0.50;0.10;;;-1.90;1.00;;;;;;6037628;23;20385;-75
2022/12/18 14:53:36;;;;;;;1.87;1.43;;;-1.90;1.00;;;;;;6036677;23;20419;-75
2022/12/18 14:56:13;;;;;;;0.50;0.10;;;-1.80;1.00;;;;;;6037782;23;20443;-75
2022/12/18 14:58:46;;;;;;;2.43;1.20;;;-1.80;1.00;;;;;;6038789;23;20397;-75
2022/12/18 15:01:27;;;;;;;0.50;0.10;;;-1.70;1.00;;;;;;6038544;23;20444;-75
2022/12/18 15:03:58;;;;;;;0.50;0.10;;;-1.70;1.00;;;;;;6038268;23;20393;-75
2022/12/18 15:06:30;;;;;;;3.53;1.80;;;-1.80;1.00;;;;;;6038639;23;20463;-76
2022/12/18 15:08:59;;;;;;;0.50;0.10;;;-1.80;1.00;;;;;;6038928;23;20450;-75
2022/12/18 15:11:34;;;;;;;4.13;2.33;;;;;;;;;;6038904;23;20404;-77
2022/12/18 15:14:24;;;;;;;0.50;0.10;;;-1.90;1.00;;;;;;6037933;23;20454;-75
2022/12/18 15:16:53;;;;;;;0.60;0.40;;;-1.90;1.00;;;;;;6038089;23;20448;-74
2022/12/18 15:19:28;;;;;;;2.47;2.27;;;-1.90;1.00;;;;;;6038032;23;20470;-75
2022/12/18 15:21:58;;;;;;;1.20;1.17;;;-1.90;1.00;;;;;;6037884;23;20381;-76
2022/12/18 15:24:33;;;;;;;0.60;0.33;;;-1.90;1.00;;;;;;6038093;23;20377;-75
2022/12/18 15:27:02;;;;;;;1.23;1.13;;;;;;;;;;6037836;23;20464;-76
2022/12/18 15:29:30;;;;;;;0.50;0.20;;;-1.90;1.00;;;;;;6042511;23;20413;-74
2022/12/18 15:32:03;;;;;;;1.30;1.20;;;-1.90;1.00;;;;;;6038783;23;20417;-74
2022/12/18 15:34:34;;;;;;;0.50;0.10;;;-1.90;1.00;;;;;;6039158;23;20408;-73
2022/12/18 15:37:02;;;;;;;0.67;0.50;;;-1.90;1.00;;;;;;6038066;23;20480;-76
2022/12/18 15:39:30;;;;;;;0.67;0.67;;;-1.90;1.00;;;;;;6034806;23;20920;-75
2022/12/18 15:44:40;;;;;;;2.83;2.63;;;-1.80;1.00;;;;;;5976562;23;20413;-75
2022/12/18 15:47:13;;;;;;;4.00;2.10;;;-1.70;1.00;;;;;;6038802;23;20432;-75
2022/12/18 15:49:42;;;;;;;0.50;0.20;;;-1.70;1.00;;;;;;6037462;23;20416;-75
2022/12/18 15:52:25;;;;;;;0.50;0.10;;;-1.70;1.00;;;;;;6037941;23;20472;-75
2022/12/18 15:57:39;;;;;;;0.50;0.10;;;-1.70;1.00;;;;;;6038260;23;20868;-73
2022/12/18 16:00:12;;;;;;;1.63;0.77;;;-1.60;1.00;;;;;;6037942;23;20828;-74
2022/12/18 16:02:40;;;;;;;0.50;0.10;;;-1.60;1.00;;;;;;6037845;23;20420;-75
2022/12/18 16:05:16;;;;;;;1.47;1.17;;;-1.60;1.00;;;;;;6037996;23;20755;-76
2022/12/18 16:07:44;;;;;;;0.50;0.10;;;-1.50;1.00;;;;;;6037267;23;20404;-76
2022/12/18 16:10:13;;;;;;;0.50;0.30;;;-1.50;1.00;;;;;;6037377;23;20734;-74
2022/12/18 16:12:42;;;;;;;1.13;1.13;;;-1.40;1.00;;;;;;6036452;23;20423;-75
2022/12/18 16:15:13;;;;;;;0.50;0.10;;;-1.30;1.00;;;;;;6037456;23;20428;-74
2022/12/18 16:17:43;;;;;;;0.50;0.10;;;-1.40;1.00;;;;;;6037242;23;20408;-74
2022/12/18 16:20:16;;;;;;;0.50;0.10;;;-1.20;1.00;;;;;;6037877;23;20969;-75
2022/12/18 16:22:45;;;;;;;0.50;0.10;;;-1.20;1.00;;;;;;6037112;23;20396;-76
2022/12/18 16:25:23;;;;;;;0.50;0.10;;;-1.10;1.00;;;;;;6037743;23;20429;-74
2022/12/18 16:27:51;;;;;;;0.50;0.10;;;-1.10;1.00;;;;;;6037985;23;20397;-74
2022/12/18 16:30:21;;;;;;;2.10;1.13;;;-1.10;1.00;;;;;;6037803;23;20433;-76
2022/12/18 16:32:49;;;;;;;0.50;0.10;;;-1.00;1.00;;;;;;6037141;23;20500;-76
2022/12/18 16:35:18;;;;;;;0.60;0.30;;;;;;;;;;6037728;23;20760;-74
2022/12/18 16:37:46;;;;;;;0.50;0.10;;;-1.00;1.00;;;;;;6037659;23;20417;-75
2022/12/18 16:40:16;;;;;;;1.80;1.70;;;-0.90;1.00;;;;;;6037711;23;20457;-73
2022/12/18 16:42:46;;;;;;;0.50;0.20;;;-1.00;1.00;;;;;;6037144;23;20409;-74
2022/12/18 16:45:15;;;;;;;0.50;0.10;;;-1.10;1.00;;;;;;6037771;23;20440;-74
2022/12/18 16:47:43;;;;;;;0.50;0.10;;;-1.10;1.00;;;;;;6037704;23;20409;-73
2022/12/18 16:50:11;;;;;;;0.50;0.10;;;-1.00;1.00;;;;;;6037102;23;20496;-75
2022/12/18 16:52:40;;;;;;;0.50;0.10;;;-1.00;1.00;;;;;;6035602;23;21176;-76
2022/12/18 16:55:09;;;;;;;0.50;0.10;;;-0.80;1.00;;;;;;6035234;23;20435;-74
2022/12/18 16:57:37;;;;;;;0.50;0.10;;;-0.80;1.00;;;;;;6038170;23;20405;-74
2022/12/18 17:00:06;;;;;;;0.60;0.10;;;-0.70;1.00;;;;;;6036707;23;20409;-74
2022/12/18 17:02:34;;;;;;;0.50;0.10;;;-0.70;1.00;;;;;;6037100;23;20401;-74
2022/12/18 17:05:03;;;;;;;0.60;0.10;;;-0.60;1.00;;;;;;6037389;23;20440;-73
2022/12/18 17:07:31;;;;;;;0.50;0.10;;;-0.60;1.00;;;;;;6036651;23;20489;-74
2022/12/18 17:10:00;;;;;;;0.50;0.10;;;-0.50;1.00;;;;;;6038087;23;20405;-76
2022/12/18 17:12:28;;;;;;;0.50;0.10;;;-0.50;1.00;;;;;;6037430;23;20412;-76
2022/12/18 17:14:55;;;;;;;0.50;0.10;;;-0.40;1.00;;;;;;6037748;23;20408;-74
2022/12/18 17:17:23;;;;;;;0.50;0.10;;;-0.40;1.00;;;;;;6038672;23;20437;-74
2022/12/18 17:19:52;;;;;;;0.50;0.10;;;-0.40;1.00;;;;;;6038721;23;20796;-73
2022/12/18 17:22:21;;;;;;;0.60;0.30;;;-0.40;1.00;;;;;;6037678;23;20778;-74
2022/12/18 17:24:49;;;;;;;0.50;0.10;;;-0.30;1.00;;;;;;6038682;23;20524;-74
2022/12/18 17:27:18;;;;;;;0.50;0.10;;;-0.30;1.00;;;;;;6048192;23;20412;-77
2022/12/18 17:29:47;;;;;;;1.53;1.43;;;;;;;;;;6038663;23;20420;-76
2022/12/18 17:32:16;;;;;;;0.50;0.10;;;-0.20;1.00;;;;;;6039648;23;20415;-73
2022/12/18 17:34:44;;;;;;;1.03;0.93;;;-0.20;1.00;;;;;;6041885;23;20408;-74
2022/12/18 17:37:11;;;;;;;0.50;0.10;;;-0.20;1.00;;;;;;6040744;23;20424;-75
2022/12/18 17:39:40;;;;;;;0.50;0.20;;;;;;;;;;6038350;23;20582;-74
2022/12/18 17:42:09;;;;;;;0.50;0.10;;;-1.50;1.00;;;;;;6037433;23;20506;-73
2022/12/18 17:44:44;;;;;;;0.50;0.10;;;-0.20;1.00;;;;;;6037744;23;20389;-74
2022/12/18 17:47:12;;;;;;;0.50;0.10;;;-0.10;1.00;;;;;;6034070;23;20479;-74
2022/12/18 17:49:40;;;;;;;0.50;0.10;;;-0.10;1.00;;;;;;6037591;23;20396;-75